Time,TemperatureF,DewpointF,PressureIn,WindDirection,WindDirectionDegrees,WindSpeedMPH,WindSpeedGustMPH,Humidity,HourlyPrecipIn,Conditions,Clouds,dailyrainin,SolarRadiationWatts/m^2,SoftwareType,DateUTC
2013-02-20 00:00:00,40.6,39.0,29.51,WSW,245,2.0,5.0,94,0.02,,OVC021,0.26,0.00,VWS V14.01,2013-02-20 05:00:00,
2013-02-20 00:05:00,40.6,39.0,29.51,WSW,253,6.0,6.0,94,0.02,,OVC021,0.00,0.00,VWS V14.01,2013-02-20 05:05:00,
2013-02-20 00:10:00,40.4,38.8,29.51,WSW,247,8.0,8.0,94,0.01,,OVC021,0.00,0.00,VWS V14.01,2013-02-20 05:10:00,
2013-02-20 00:15:00,40.2,38.6,29.50,West,266,6.0,8.0,94,0.01,,OVC021,0.00,0.00,VWS V14.01,2013-02-20 05:15:00,
2013-02-20 00:20:00,40.0,38.4,29.50,West,265,4.0,6.0,94,0.01,,OVC021,0.00,0.00,VWS V14.01,2013-02-20 05:20:00,
2013-02-20 00:25:00,39.8,38.2,29.50,WSW,254,4.0,8.0,94,0.01,,OVC021,0.00,0.00,VWS V14.01,2013-02-20 05:25:00,
2013-02-20 00:30:00,39.7,38.1,29.50,WSW,242,4.0,8.0,94,0.00,,OVC021,0.00,0.00,VWS V14.01,2013-02-20 05:30:00,
2013-02-20 00:35:00,39.7,37.8,29.50,WSW,244,0.0,9.0,93,0.00,,OVC021,0.00,0.00,VWS V14.01,2013-02-20 05:35:00,
2013-02-20 00:40:00,39.6,37.8,29.50,WSW,254,3.0,4.0,93,0.00,,OVC021,0.00,0.00,VWS V14.01,2013-02-20 05:40:00,
2013-02-20 00:45:00,39.5,37.7,29.50,WSW,251,2.0,5.0,93,0.00,,OVC021,0.00,0.00,VWS V14.01,2013-02-20 05:45:00,
2013-02-20 00:50:00,39.3,37.5,29.49,WSW,251,2.0,4.0,93,0.00,,OVC021,0.00,0.00,VWS V14.01,2013-02-20 05:50:00,
2013-02-20 00:55:00,39.2,37.3,29.48,WSW,248,2.0,5.0,93,0.00,,OVC021,0.00,0.00,VWS V14.01,2013-02-20 05:55:00,
2013-02-20 01:00:00,39.1,37.2,29.48,WSW,248,3.0,3.0,93,0.00,,OVC021,0.00,0.00,VWS V14.01,2013-02-20 06:00:00,
2013-02-20 01:05:00,39.0,37.2,29.48,WSW,248,1.0,2.0,93,0.00,,OVC021,0.00,0.00,VWS V14.01,2013-02-20 06:05:00,
2013-02-20 01:10:00,38.8,37.0,29.47,WSW,248,0.0,2.0,93,0.00,,OVC021,0.00,0.00,VWS V14.01,2013-02-20 06:10:00,
2013-02-20 01:15:00,38.7,36.8,29.47,SW,224,1.0,5.0,93,0.00,,OVC021,0.00,0.00,VWS V14.01,2013-02-20 06:15:00,
2013-02-20 01:20:00,38.7,36.8,29.47,SW,225,1.0,3.0,93,0.00,,OVC021,0.00,0.00,VWS V14.01,2013-02-20 06:20:00,
2013-02-20 01:25:00,38.5,36.7,29.46,WSW,252,1.0,5.0,93,0.00,,OVC021,0.00,0.00,VWS V14.01,2013-02-20 06:25:00,
2013-02-20 01:30:00,38.4,36.6,29.48,WSW,247,4.0,5.0,93,0.00,,OVC021,0.00,0.00,VWS V14.01,2013-02-20 06:30:00,
2013-02-20 01:35:00,38.2,36.4,29.47,West,263,4.0,9.0,93,0.00,,OVC021,0.00,0.00,VWS V14.01,2013-02-20 06:35:00,
2013-02-20 01:40:00,38.1,36.3,29.48,West,261,3.0,6.0,93,0.00,,OVC021,0.00,0.00,VWS V14.01,2013-02-20 06:40:00,
2013-02-20 01:45:00,38.0,36.2,29.48,West,263,4.0,7.0,93,0.00,,OVC021,0.00,0.00,VWS V14.01,2013-02-20 06:45:00,
2013-02-20 01:50:00,37.9,36.1,29.48,West,268,6.0,9.0,93,0.00,,OVC021,0.00,0.00,VWS V14.01,2013-02-20 06:50:00,
2013-02-20 01:55:00,37.8,36.0,29.48,WSW,253,5.0,9.0,93,0.00,,OVC021,0.00,0.00,VWS V14.01,2013-02-20 06:55:00,
2013-02-20 02:00:00,37.7,35.9,29.48,WSW,241,9.0,10.0,93,0.00,,OVC021,0.00,0.00,VWS V14.01,2013-02-20 07:00:00,
2013-02-20 02:05:00,37.7,35.9,29.48,WSW,237,6.0,9.0,93,0.00,,OVC021,0.00,0.00,VWS V14.01,2013-02-20 07:05:00,
2013-02-20 02:10:00,37.6,35.8,29.48,WSW,252,6.0,8.0,93,0.00,,OVC021,0.00,0.00,VWS V14.01,2013-02-20 07:10:00,
2013-02-20 02:15:00,37.5,35.7,29.48,WSW,248,5.0,8.0,93,0.00,,OVC021,0.00,0.00,VWS V14.01,2013-02-20 07:15:00,
2013-02-20 02:20:00,37.4,35.6,29.48,West,261,8.0,9.0,93,0.00,,OVC021,0.00,0.00,VWS V14.01,2013-02-20 07:20:00,
2013-02-20 02:25:00,37.3,35.5,29.48,SW,223,6.0,9.0,93,0.00,,OVC021,0.00,0.00,VWS V14.01,2013-02-20 07:25:00,
2013-02-20 02:30:00,37.3,35.5,29.48,WSW,258,7.0,9.0,93,0.00,,OVC021,0.00,0.00,VWS V14.01,2013-02-20 07:30:00,
2013-02-20 02:35:00,37.2,35.1,29.48,West,259,8.0,8.0,92,0.00,,OVC021,0.00,0.00,VWS V14.01,2013-02-20 07:35:00,
2013-02-20 02:40:00,37.1,35.0,29.48,SW,228,4.0,8.0,92,0.00,,OVC021,0.00,0.00,VWS V14.01,2013-02-20 07:40:00,
2013-02-20 02:45:00,37.0,34.9,29.48,WSW,258,5.0,6.0,92,0.00,,OVC021,0.00,0.00,VWS V14.01,2013-02-20 07:45:00,
2013-02-20 02:50:00,36.9,34.8,29.48,West,277,7.0,9.0,92,0.00,,OVC021,0.00,0.00,VWS V14.01,2013-02-20 07:50:00,
2013-02-20 02:55:00,36.9,34.8,29.47,SW,234,6.0,9.0,92,0.00,,OVC021,0.00,0.00,VWS V14.01,2013-02-20 07:55:00,
2013-02-20 03:00:00,36.8,34.7,29.47,West,271,1.0,8.0,92,0.00,,OVC021,0.00,0.00,VWS V14.01,2013-02-20 08:00:00,
2013-02-20 03:05:00,36.9,34.8,29.48,West,263,4.0,9.0,92,0.00,,OVC021,0.00,0.00,VWS V14.01,2013-02-20 08:05:00,
2013-02-20 03:10:00,36.9,34.8,29.48,West,271,4.0,8.0,92,0.00,,OVC021,0.00,0.00,VWS V14.01,2013-02-20 08:10:00,
2013-02-20 03:15:00,36.8,34.7,29.48,West,270,4.0,5.0,92,0.00,,OVC021,0.00,0.00,VWS V14.01,2013-02-20 08:15:00,
2013-02-20 03:20:00,36.8,34.7,29.47,West,260,5.0,7.0,92,0.00,,OVC021,0.00,0.00,VWS V14.01,2013-02-20 08:20:00,
2013-02-20 03:25:00,36.8,34.7,29.47,WSW,254,1.0,6.0,92,0.00,,OVC021,0.00,0.00,VWS V14.01,2013-02-20 08:25:00,
2013-02-20 03:30:00,36.7,34.6,29.47,WSW,243,2.0,8.0,92,0.00,,OVC021,0.00,0.00,VWS V14.01,2013-02-20 08:30:00,
2013-02-20 03:35:00,36.7,34.6,29.47,West,267,8.0,8.0,92,0.00,,OVC021,0.00,0.00,VWS V14.01,2013-02-20 08:35:00,
2013-02-20 03:40:00,36.6,34.5,29.48,WNW,297,6.0,15.0,92,0.00,,OVC021,0.00,0.00,VWS V14.01,2013-02-20 08:40:00,
2013-02-20 03:45:00,35.9,33.0,29.48,WSW,257,12.0,19.0,89,0.00,,OVC021,0.00,0.00,VWS V14.01,2013-02-20 08:45:00,
2013-02-20 03:50:00,35.8,32.3,29.48,WNW,298,7.0,16.0,87,0.00,,OVC021,0.00,0.00,VWS V14.01,2013-02-20 08:50:00,
2013-02-20 03:55:00,35.6,32.1,29.48,West,266,7.0,10.0,87,0.00,,OVC021,0.00,0.00,VWS V14.01,2013-02-20 08:55:00,
2013-02-20 04:00:00,35.4,31.9,29.48,WSW,246,13.0,15.0,87,0.00,,OVC021,0.00,0.00,VWS V14.01,2013-02-20 09:00:00,
2013-02-20 04:05:00,35.2,31.7,29.48,West,265,13.0,13.0,87,0.00,,OVC021,0.00,0.00,VWS V14.01,2013-02-20 09:05:00,
2013-02-20 04:10:00,34.9,31.1,29.49,WSW,257,5.0,15.0,86,0.00,,OVC021,0.00,0.00,VWS V14.01,2013-02-20 09:10:00,
2013-02-20 04:15:00,34.6,30.6,29.49,West,278,6.0,18.0,85,0.00,,OVC021,0.00,0.00,VWS V14.01,2013-02-20 09:15:00,
2013-02-20 04:20:00,34.4,30.1,29.50,West,271,9.0,15.0,84,0.00,,OVC021,0.00,0.00,VWS V14.01,2013-02-20 09:20:00,
2013-02-20 04:25:00,34.2,29.9,29.50,West,260,10.0,15.0,84,0.00,,OVC021,0.00,0.00,VWS V14.01,2013-02-20 09:25:00,
2013-02-20 04:30:00,34.1,29.5,29.50,West,266,9.0,16.0,83,0.00,,OVC021,0.00,0.00,VWS V14.01,2013-02-20 09:30:00,
2013-02-20 04:35:00,34.0,29.4,29.50,West,271,13.0,18.0,83,0.00,,OVC021,0.00,0.00,VWS V14.01,2013-02-20 09:35:00,
2013-02-20 04:40:00,33.8,29.2,29.50,West,272,6.0,13.0,83,0.00,,OVC021,0.00,0.00,VWS V14.01,2013-02-20 09:40:00,
2013-02-20 04:45:00,33.7,28.5,29.50,West,263,9.0,19.0,81,0.00,,OVC021,0.00,0.00,VWS V14.01,2013-02-20 09:45:00,
2013-02-20 04:50:00,33.6,28.4,29.50,WNW,291,13.0,16.0,81,0.00,,OVC021,0.00,0.00,VWS V14.01,2013-02-20 09:50:00,
2013-02-20 04:55:00,33.5,28.0,29.50,WSW,254,9.0,18.0,80,0.00,,OVC021,0.00,0.00,VWS V14.01,2013-02-20 09:55:00,
2013-02-20 05:00:00,33.3,27.8,29.51,West,275,6.0,16.0,80,0.00,,OVC021,0.00,0.00,VWS V14.01,2013-02-20 10:00:00,
2013-02-20 05:05:00,33.2,27.7,29.51,West,267,11.0,14.0,80,0.00,,OVC021,0.00,0.00,VWS V14.01,2013-02-20 10:05:00,
2013-02-20 05:10:00,33.1,27.6,29.51,WSW,247,9.0,14.0,80,0.00,,OVC021,0.00,0.00,VWS V14.01,2013-02-20 10:10:00,
2013-02-20 05:15:00,33.0,27.5,29.51,West,279,3.0,13.0,80,0.00,,OVC021,0.00,0.00,VWS V14.01,2013-02-20 10:15:00,
2013-02-20 05:20:00,33.0,27.2,29.51,WSW,246,13.0,17.0,79,0.00,,OVC021,0.00,0.00,VWS V14.01,2013-02-20 10:20:00,
2013-02-20 05:25:00,32.9,27.1,29.51,West,281,6.0,13.0,79,0.00,,OVC021,0.00,0.00,VWS V14.01,2013-02-20 10:25:00,
2013-02-20 05:30:00,32.8,27.0,29.51,WSW,250,9.0,14.0,79,0.00,,OVC021,0.00,0.00,VWS V14.01,2013-02-20 10:30:00,
2013-02-20 05:35:00,32.7,26.6,29.51,WNW,282,5.0,15.0,78,0.00,,OVC021,0.00,0.00,VWS V14.01,2013-02-20 10:35:00,
2013-02-20 05:40:00,32.6,26.2,29.51,West,279,5.0,16.0,77,0.00,,OVC021,0.00,0.00,VWS V14.01,2013-02-20 10:40:00,
2013-02-20 05:45:00,32.5,25.8,29.52,West,265,6.0,17.0,76,0.00,,OVC021,0.00,0.00,VWS V14.01,2013-02-20 10:45:00,
2013-02-20 05:50:00,32.4,25.7,29.52,NW,305,8.0,14.0,76,0.00,,OVC021,0.00,0.00,VWS V14.01,2013-02-20 10:50:00,
2013-02-20 05:55:00,32.2,25.5,29.52,West,271,12.0,15.0,76,0.00,,OVC021,0.00,0.00,VWS V14.01,2013-02-20 10:55:00,
2013-02-20 06:00:00,32.1,25.1,29.52,WNW,290,8.0,13.0,75,0.00,,OVC021,0.00,0.00,VWS V14.01,2013-02-20 11:00:00,
2013-02-20 06:05:00,31.9,24.9,29.52,WNW,282,11.0,11.0,75,0.00,,OVC021,0.00,0.00,VWS V14.01,2013-02-20 11:05:00,
2013-02-20 06:06:00,31.9,24.9,29.52,West,279,7.0,12.0,75,0.00,,OVC021,0.00,0.00,VWS V14.01,2013-02-20 11:06:00,
2013-02-20 06:10:00,31.8,24.8,29.52,West,268,11.0,14.0,75,0.00,,OVC021,0.00,0.00,VWS V14.01,2013-02-20 11:10:00,
2013-02-20 06:11:00,31.8,24.5,29.53,WNW,299,12.0,14.0,74,0.00,,OVC021,0.00,0.00,VWS V14.01,2013-02-20 11:11:00,
2013-02-20 06:15:00,31.8,24.5,29.53,West,273,9.0,14.0,74,0.00,,OVC021,0.00,0.00,VWS V14.01,2013-02-20 11:15:00,
2013-02-20 06:16:00,31.7,24.0,29.53,West,280,11.0,16.0,73,0.00,,OVC021,0.00,0.00,VWS V14.01,2013-02-20 11:16:00,
2013-02-20 06:20:00,31.7,24.0,29.53,West,275,8.0,16.0,73,0.00,,OVC021,0.00,0.00,VWS V14.01,2013-02-20 11:20:00,
2013-02-20 06:21:00,31.6,24.0,29.53,West,263,6.0,14.0,73,0.00,,OVC021,0.00,0.00,VWS V14.01,2013-02-20 11:21:00,
2013-02-20 06:25:00,31.6,24.0,29.53,WNW,292,10.0,14.0,73,0.00,,OVC021,0.00,0.00,VWS V14.01,2013-02-20 11:25:00,
2013-02-20 06:26:00,31.5,23.9,29.53,West,273,13.0,16.0,73,0.00,,OVC021,0.00,0.00,VWS V14.01,2013-02-20 11:26:00,
2013-02-20 06:30:00,31.6,23.6,29.53,West,265,8.0,16.0,72,0.00,,OVC021,0.00,0.00,VWS V14.01,2013-02-20 11:30:00,
2013-02-20 06:31:00,31.6,23.6,29.53,West,263,7.0,14.0,72,0.00,,OVC021,0.00,0.00,VWS V14.01,2013-02-20 11:31:00,
2013-02-20 06:35:00,31.5,23.5,29.53,WSW,255,12.0,14.0,72,0.00,,OVC021,0.00,0.00,VWS V14.01,2013-02-20 11:35:00,
2013-02-20 06:36:00,31.5,23.5,29.53,WSW,240,6.0,13.0,72,0.00,,OVC021,0.00,0.00,VWS V14.01,2013-02-20 11:36:00,
2013-02-20 06:40:00,31.5,23.5,29.54,WNW,294,9.0,13.0,72,0.00,,OVC021,0.00,5.00,VWS V14.01,2013-02-20 11:40:00,
2013-02-20 06:41:00,31.5,23.2,29.54,West,279,5.0,18.0,71,0.00,,OVC021,0.00,7.00,VWS V14.01,2013-02-20 11:41:00,
2013-02-20 06:45:00,31.5,23.2,29.54,West,281,12.0,18.0,71,0.00,,OVC021,0.00,7.00,VWS V14.01,2013-02-20 11:45:00,
2013-02-20 06:46:00,31.5,22.9,29.54,WNW,293,12.0,16.0,70,0.00,,OVC021,0.00,11.00,VWS V14.01,2013-02-20 11:46:00,
2013-02-20 06:50:00,31.4,22.8,29.54,WNW,283,11.0,16.0,70,0.00,,OVC021,0.00,12.00,VWS V14.01,2013-02-20 11:50:00,
2013-02-20 06:52:00,31.4,22.4,29.54,West,273,17.0,19.0,69,0.00,,OVC021,0.00,14.00,VWS V14.01,2013-02-20 11:52:00,
2013-02-20 06:55:00,31.4,22.4,29.54,West,269,11.0,19.0,69,0.00,,OVC021,0.00,14.00,VWS V14.01,2013-02-20 11:55:00,
2013-02-20 06:57:00,31.4,22.4,29.55,NNW,331,7.0,13.0,69,0.00,,OVC021,0.00,18.00,VWS V14.01,2013-02-20 11:57:00,
2013-02-20 07:00:00,31.3,22.3,29.55,WNW,294,10.0,13.0,69,0.00,,OVC021,0.00,19.00,VWS V14.01,2013-02-20 12:00:00,
2013-02-20 07:02:00,31.2,22.2,29.55,WSW,253,9.0,12.0,69,0.00,,OVC021,0.00,23.00,VWS V14.01,2013-02-20 12:02:00,
2013-02-20 07:05:00,31.2,22.2,29.55,West,262,6.0,12.0,69,0.00,,OVC021,0.00,23.00,VWS V14.01,2013-02-20 12:05:00,
2013-02-20 07:07:00,31.0,21.7,29.55,West,259,12.0,16.0,68,0.00,,OVC021,0.00,32.00,VWS V14.01,2013-02-20 12:07:00,
2013-02-20 07:10:00,30.9,21.2,29.55,West,271,18.0,18.0,67,0.00,,OVC021,0.00,32.00,VWS V14.01,2013-02-20 12:10:00,
2013-02-20 07:12:00,30.8,21.1,29.55,West,265,12.0,18.0,67,0.00,,OVC021,0.00,33.00,VWS V14.01,2013-02-20 12:12:00,
2013-02-20 07:15:00,30.8,20.8,29.55,WNW,284,9.0,18.0,66,0.00,,OVC021,0.00,33.00,VWS V14.01,2013-02-20 12:15:00,
2013-02-20 07:17:00,30.6,20.6,29.56,West,271,8.0,17.0,66,0.00,,OVC021,0.00,26.00,VWS V14.01,2013-02-20 12:17:00,
2013-02-20 07:20:00,30.5,20.5,29.56,SW,229,9.0,17.0,66,0.00,,OVC021,0.00,26.00,VWS V14.01,2013-02-20 12:20:00,
2013-02-20 07:22:00,30.4,20.4,29.56,West,273,16.0,20.0,66,0.00,,OVC021,0.00,25.00,VWS V14.01,2013-02-20 12:22:00,
2013-02-20 07:25:00,30.3,20.0,29.56,WNW,294,7.0,20.0,65,0.00,,OVC021,0.00,25.00,VWS V14.01,2013-02-20 12:25:00,
2013-02-20 07:27:00,30.2,20.2,29.56,West,269,10.0,15.0,66,0.00,,OVC021,0.00,23.00,VWS V14.01,2013-02-20 12:27:00,
2013-02-20 07:30:00,30.2,20.2,29.56,WSW,248,19.0,19.0,66,0.00,,OVC021,0.00,25.00,VWS V14.01,2013-02-20 12:30:00,
2013-02-20 07:32:00,30.1,20.1,29.56,West,269,10.0,20.0,66,0.00,,OVC021,0.00,35.00,VWS V14.01,2013-02-20 12:32:00,
2013-02-20 07:35:00,30.0,20.0,29.56,WNW,283,7.0,20.0,66,0.00,,OVC021,0.00,74.00,VWS V14.01,2013-02-20 12:35:00,
2013-02-20 07:37:00,30.1,20.1,29.57,West,268,10.0,16.0,66,0.00,,OVC021,0.00,148.00,VWS V14.01,2013-02-20 12:37:00,
2013-02-20 07:40:00,30.2,20.2,29.57,West,270,7.0,16.0,66,0.00,,OVC021,0.00,155.00,VWS V14.01,2013-02-20 12:40:00,
2013-02-20 07:42:00,30.2,19.9,29.57,West,262,17.0,20.0,65,0.00,,OVC021,0.00,109.00,VWS V14.01,2013-02-20 12:42:00,
2013-02-20 07:45:00,30.3,20.0,29.57,WSW,249,8.0,20.0,65,0.00,,OVC021,0.00,56.00,VWS V14.01,2013-02-20 12:45:00,
2013-02-20 07:47:00,30.3,19.6,29.57,West,267,9.0,18.0,64,0.00,,OVC021,0.00,236.00,VWS V14.01,2013-02-20 12:47:00,
2013-02-20 07:50:00,30.3,20.0,29.57,West,273,9.0,23.0,65,0.00,,OVC021,0.00,225.00,VWS V14.01,2013-02-20 12:50:00,
2013-02-20 07:52:00,30.3,19.6,29.57,WNW,284,11.0,23.0,64,0.00,,OVC021,0.00,95.00,VWS V14.01,2013-02-20 12:52:00,
2013-02-20 07:55:00,30.3,19.6,29.57,West,280,11.0,23.0,64,0.00,,OVC021,0.00,74.00,VWS V14.01,2013-02-20 12:55:00,
2013-02-20 07:57:00,30.3,20.0,29.57,WSW,253,10.0,18.0,65,0.00,,OVC021,0.00,125.00,VWS V14.01,2013-02-20 12:57:00,
2013-02-20 08:00:00,30.3,20.0,29.57,WSW,252,6.0,18.0,65,0.00,,OVC021,0.00,141.00,VWS V14.01,2013-02-20 13:00:00,
2013-02-20 08:02:00,30.7,20.0,29.58,WNW,285,6.0,15.0,64,0.00,,OVC021,0.00,332.00,VWS V14.01,2013-02-20 13:02:00,
2013-02-20 08:05:00,30.7,20.0,29.58,WNW,289,15.0,16.0,64,0.00,,OVC021,0.00,338.00,VWS V14.01,2013-02-20 13:05:00,
2013-02-20 08:07:00,30.9,19.8,29.58,West,268,5.0,16.0,63,0.00,,OVC021,0.00,343.00,VWS V14.01,2013-02-20 13:07:00,
2013-02-20 08:10:00,30.9,20.2,29.58,WSW,255,10.0,16.0,64,0.00,,OVC021,0.00,278.00,VWS V14.01,2013-02-20 13:10:00,
2013-02-20 08:13:00,30.9,19.8,29.57,WNW,294,9.0,16.0,63,0.00,,OVC021,0.00,216.00,VWS V14.01,2013-02-20 13:13:00,
2013-02-20 08:15:00,30.9,19.8,29.57,West,265,14.0,16.0,63,0.00,,OVC021,0.00,216.00,VWS V14.01,2013-02-20 13:15:00,
2013-02-20 08:18:00,30.7,19.6,29.58,South,185,15.0,20.0,63,0.00,,OVC021,0.00,271.00,VWS V14.01,2013-02-20 13:18:00,
2013-02-20 08:20:00,30.6,19.5,29.58,West,263,14.0,20.0,63,0.00,,OVC021,0.00,271.00,VWS V14.01,2013-02-20 13:20:00,
2013-02-20 08:23:00,30.6,19.5,29.58,WSW,254,15.0,16.0,63,0.00,,OVC021,0.00,239.00,VWS V14.01,2013-02-20 13:23:00,
2013-02-20 08:25:00,30.6,19.5,29.58,WSW,253,13.0,16.0,63,0.00,,OVC021,0.00,239.00,VWS V14.01,2013-02-20 13:25:00,
2013-02-20 08:28:00,30.7,19.6,29.58,West,267,14.0,16.0,63,0.00,,OVC021,0.00,309.00,VWS V14.01,2013-02-20 13:28:00,
2013-02-20 08:30:00,30.7,19.6,29.58,WNW,300,10.0,16.0,63,0.00,,OVC021,0.00,309.00,VWS V14.01,2013-02-20 13:30:00,
2013-02-20 08:33:00,30.8,19.3,29.57,West,269,16.0,20.0,62,0.00,,OVC021,0.00,325.00,VWS V14.01,2013-02-20 13:33:00,
2013-02-20 08:35:00,30.8,19.3,29.57,West,273,12.0,20.0,62,0.00,,OVC021,0.00,325.00,VWS V14.01,2013-02-20 13:35:00,
2013-02-20 08:38:00,30.9,19.4,29.58,West,262,13.0,18.0,62,0.00,,OVC021,0.00,338.00,VWS V14.01,2013-02-20 13:38:00,
2013-02-20 08:40:00,30.9,19.4,29.58,WNW,296,9.0,18.0,62,0.00,,OVC021,0.00,338.00,VWS V14.01,2013-02-20 13:40:00,
2013-02-20 08:43:00,30.8,19.0,29.57,WNW,299,15.0,19.0,61,0.00,,OVC021,0.00,352.00,VWS V14.01,2013-02-20 13:43:00,
2013-02-20 08:45:00,30.7,18.9,29.57,NW,304,19.0,19.0,61,0.00,,OVC021,0.00,352.00,VWS V14.01,2013-02-20 13:45:00,
2013-02-20 08:48:00,30.8,19.3,29.57,West,261,14.0,14.0,62,0.00,,OVC021,0.00,364.00,VWS V14.01,2013-02-20 13:48:00,
2013-02-20 08:50:00,30.8,19.3,29.57,West,273,12.0,23.0,62,0.00,,OVC021,0.00,364.00,VWS V14.01,2013-02-20 13:50:00,
2013-02-20 08:53:00,30.9,19.0,29.57,WNW,283,10.0,14.0,61,0.00,,OVC021,0.00,378.00,VWS V14.01,2013-02-20 13:53:00,
2013-02-20 08:55:00,30.9,19.0,29.57,West,261,14.0,21.0,61,0.00,,OVC021,0.00,378.00,VWS V14.01,2013-02-20 13:55:00,
2013-02-20 08:58:00,31.0,18.8,29.58,West,273,15.0,19.0,60,0.00,,OVC021,0.00,404.00,VWS V14.01,2013-02-20 13:58:00,
2013-02-20 09:00:00,31.0,18.8,29.58,WNW,297,17.0,22.0,60,0.00,,OVC021,0.00,404.00,VWS V14.01,2013-02-20 14:00:00,
2013-02-20 09:03:00,31.1,18.9,29.58,West,264,17.0,20.0,60,0.00,,OVC021,0.00,420.00,VWS V14.01,2013-02-20 14:03:00,
2013-02-20 09:05:00,31.1,18.9,29.57,West,270,14.0,20.0,60,0.00,,OVC021,0.00,420.00,VWS V14.01,2013-02-20 14:05:00,
2013-02-20 09:08:00,31.2,18.5,29.58,West,280,9.0,16.0,59,0.00,,OVC021,0.00,436.00,VWS V14.01,2013-02-20 14:08:00,
2013-02-20 09:10:00,31.2,19.0,29.58,WNW,295,16.0,26.0,60,0.00,,OVC021,0.00,436.00,VWS V14.01,2013-02-20 14:10:00,
2013-02-20 09:13:00,31.2,18.2,29.58,WSW,257,21.0,23.0,58,0.00,,OVC021,0.00,436.00,VWS V14.01,2013-02-20 14:13:00,
2013-02-20 09:15:00,31.2,18.5,29.58,WNW,300,18.0,23.0,59,0.00,,OVC021,0.00,436.00,VWS V14.01,2013-02-20 14:15:00,
2013-02-20 09:18:00,31.2,18.2,29.57,West,265,14.0,19.0,58,0.00,,OVC021,0.00,448.00,VWS V14.01,2013-02-20 14:18:00,
2013-02-20 09:20:00,31.2,18.5,29.58,West,259,9.0,26.0,59,0.00,,OVC021,0.00,455.00,VWS V14.01,2013-02-20 14:20:00,
2013-02-20 09:24:00,31.4,18.4,29.57,WNW,296,14.0,24.0,58,0.00,,OVC021,0.00,485.00,VWS V14.01,2013-02-20 14:24:00,
2013-02-20 09:25:00,31.4,18.4,29.58,West,280,23.0,24.0,58,0.00,,OVC021,0.00,471.00,VWS V14.01,2013-02-20 14:25:00,
2013-02-20 09:29:00,31.3,18.2,29.58,West,278,19.0,21.0,58,0.00,,OVC021,0.00,499.00,VWS V14.01,2013-02-20 14:29:00,
2013-02-20 09:30:00,31.3,18.2,29.58,South,190,13.0,24.0,58,0.00,,OVC021,0.00,499.00,VWS V14.01,2013-02-20 14:30:00,
2013-02-20 09:34:00,31.6,18.9,29.58,NW,317,13.0,16.0,59,0.00,,OVC021,0.00,499.00,VWS V14.01,2013-02-20 14:34:00,
2013-02-20 09:35:00,31.5,18.8,29.58,WNW,292,7.0,21.0,59,0.00,,OVC021,0.00,499.00,VWS V14.01,2013-02-20 14:35:00,
2013-02-20 09:39:00,31.7,18.2,29.58,WSW,257,10.0,22.0,57,0.00,,OVC021,0.00,608.00,VWS V14.01,2013-02-20 14:39:00,
2013-02-20 09:40:00,31.7,18.6,29.58,WSW,245,19.0,21.0,58,0.00,,OVC021,0.00,608.00,VWS V14.01,2013-02-20 14:40:00,
2013-02-20 09:44:00,31.5,18.4,29.58,WSW,250,19.0,23.0,58,0.00,,OVC021,0.00,313.00,VWS V14.01,2013-02-20 14:44:00,
2013-02-20 09:45:00,31.4,18.4,29.58,West,272,9.0,24.0,58,0.00,,OVC021,0.00,297.00,VWS V14.01,2013-02-20 14:45:00,
2013-02-20 09:49:00,31.4,18.4,29.58,West,267,17.0,17.0,58,0.00,,OVC021,0.00,225.00,VWS V14.01,2013-02-20 14:49:00,
2013-02-20 09:50:00,31.4,18.4,29.58,West,261,11.0,23.0,58,0.00,,OVC021,0.00,239.00,VWS V14.01,2013-02-20 14:50:00,
2013-02-20 09:54:00,31.3,18.2,29.58,West,259,9.0,11.0,58,0.00,,OVC021,0.00,195.00,VWS V14.01,2013-02-20 14:54:00,
2013-02-20 09:55:00,31.4,17.9,29.58,NW,304,8.0,20.0,57,0.00,,OVC021,0.00,181.00,VWS V14.01,2013-02-20 14:55:00,
2013-02-20 09:59:00,31.0,18.0,29.58,West,278,17.0,21.0,58,0.00,,OVC021,0.00,174.00,VWS V14.01,2013-02-20 14:59:00,
2013-02-20 10:00:00,31.1,18.1,29.58,WNW,283,14.0,21.0,58,0.00,,OVC021,0.00,185.00,VWS V14.01,2013-02-20 15:00:00,
2013-02-20 10:04:00,30.9,17.5,29.58,WSW,258,9.0,11.0,57,0.00,,OVC021,0.00,248.00,VWS V14.01,2013-02-20 15:04:00,
2013-02-20 10:05:00,30.9,17.5,29.58,WNW,290,10.0,21.0,57,0.00,,OVC021,0.00,236.00,VWS V14.01,2013-02-20 15:05:00,
2013-02-20 10:09:00,31.0,17.6,29.58,West,264,13.0,22.0,57,0.00,,OVC021,0.00,234.00,VWS V14.01,2013-02-20 15:09:00,
2013-02-20 10:10:00,31.0,18.0,29.59,West,281,18.0,24.0,58,0.00,,OVC021,0.00,216.00,VWS V14.01,2013-02-20 15:10:00,
2013-02-20 10:14:00,31.1,17.7,29.58,WNW,288,12.0,19.0,57,0.00,,OVC021,0.00,186.00,VWS V14.01,2013-02-20 15:14:00,
2013-02-20 10:15:00,31.1,17.7,29.58,NNW,333,14.0,22.0,57,0.00,,OVC021,0.00,200.00,VWS V14.01,2013-02-20 15:15:00,
2013-02-20 10:19:00,31.1,17.2,29.58,West,273,13.0,27.0,56,0.00,,OVC021,0.00,223.00,VWS V14.01,2013-02-20 15:19:00,
2013-02-20 10:20:00,31.2,17.8,29.58,WNW,284,25.0,25.0,57,0.00,,OVC021,0.00,202.00,VWS V14.01,2013-02-20 15:20:00,
2013-02-20 10:24:00,31.0,17.2,29.58,WNW,294,21.0,21.0,56,0.00,,OVC021,0.00,290.00,VWS V14.01,2013-02-20 15:24:00,
2013-02-20 10:25:00,31.0,17.2,29.58,WNW,287,13.0,27.0,56,0.00,,OVC021,0.00,278.00,VWS V14.01,2013-02-20 15:25:00,
2013-02-20 10:29:00,31.0,17.6,29.58,West,276,15.0,15.0,57,0.00,,OVC021,0.00,272.00,VWS V14.01,2013-02-20 15:29:00,
2013-02-20 10:30:00,31.0,17.2,29.58,West,281,14.0,21.0,56,0.00,,OVC021,0.00,287.00,VWS V14.01,2013-02-20 15:30:00,
2013-02-20 10:34:00,31.1,17.2,29.58,West,272,14.0,15.0,56,0.00,,OVC021,0.00,278.00,VWS V14.01,2013-02-20 15:34:00,
2013-02-20 10:35:00,31.1,17.2,29.58,WNW,292,15.0,19.0,56,0.00,,OVC021,0.00,262.00,VWS V14.01,2013-02-20 15:35:00,
2013-02-20 10:39:00,31.1,17.2,29.58,West,263,16.0,29.0,56,0.00,,OVC021,0.00,265.00,VWS V14.01,2013-02-20 15:39:00,
2013-02-20 10:40:00,31.1,16.8,29.58,WNW,300,11.0,29.0,55,0.00,,OVC021,0.00,243.00,VWS V14.01,2013-02-20 15:40:00,
2013-02-20 10:45:00,31.1,17.2,29.59,WNW,284,19.0,24.0,56,0.00,,OVC021,0.00,232.00,VWS V14.01,2013-02-20 15:45:00,
2013-02-20 10:50:00,31.0,16.7,29.59,West,264,26.0,27.0,55,0.00,,OVC021,0.00,230.00,VWS V14.01,2013-02-20 15:50:00,
2013-02-20 10:55:00,31.0,16.7,29.59,WNW,292,8.0,21.0,55,0.00,,OVC021,0.00,352.00,VWS V14.01,2013-02-20 15:55:00,
2013-02-20 11:00:00,31.1,16.8,29.59,WNW,284,8.0,18.0,55,0.00,,OVC021,0.00,229.00,VWS V14.01,2013-02-20 16:00:00,
2013-02-20 11:05:00,31.1,16.4,29.59,West,263,7.0,21.0,54,0.00,,OVC021,0.00,237.00,VWS V14.01,2013-02-20 16:05:00,
2013-02-20 11:10:00,31.1,16.8,29.58,NW,305,7.0,18.0,55,0.00,,OVC021,0.00,257.00,VWS V14.01,2013-02-20 16:10:00,
2013-02-20 11:15:00,31.3,16.6,29.59,NW,311,13.0,22.0,54,0.00,,OVC021,0.00,338.00,VWS V14.01,2013-02-20 16:15:00,
2013-02-20 11:20:00,31.1,16.4,29.59,West,281,22.0,22.0,54,0.00,,OVC021,0.00,369.00,VWS V14.01,2013-02-20 16:20:00,
2013-02-20 11:25:00,31.1,16.4,29.58,West,267,7.0,20.0,54,0.00,,OVC021,0.00,299.00,VWS V14.01,2013-02-20 16:25:00,
2013-02-20 11:30:00,31.3,15.7,29.58,West,271,14.0,25.0,52,0.00,,OVC021,0.00,417.00,VWS V14.01,2013-02-20 16:30:00,
2013-02-20 11:35:00,31.5,16.4,29.58,WNW,294,12.0,21.0,53,0.00,,OVC021,0.00,397.00,VWS V14.01,2013-02-20 16:35:00,
2013-02-20 11:40:00,31.4,16.3,29.58,WNW,298,11.0,19.0,53,0.00,,OVC021,0.00,311.00,VWS V14.01,2013-02-20 16:40:00,
2013-02-20 11:45:00,31.3,15.7,29.59,West,274,11.0,19.0,52,0.00,,OVC021,0.00,246.00,VWS V14.01,2013-02-20 16:45:00,
2013-02-20 11:50:00,31.1,15.5,29.58,West,281,13.0,23.0,52,0.00,,OVC021,0.00,281.00,VWS V14.01,2013-02-20 16:50:00,
2013-02-20 11:55:00,31.2,16.1,29.58,WNW,292,4.0,24.0,53,0.00,,OVC021,0.00,227.00,VWS V14.01,2013-02-20 16:55:00,
2013-02-20 12:00:00,31.3,16.2,29.58,WSW,254,18.0,23.0,53,0.00,,OVC021,0.00,207.00,VWS V14.01,2013-02-20 17:00:00,
2013-02-20 12:05:00,31.4,16.3,29.58,WNW,294,11.0,23.0,53,0.00,,OVC021,0.00,257.00,VWS V14.01,2013-02-20 17:05:00,
2013-02-20 12:06:00,31.3,15.7,29.58,WNW,298,14.0,24.0,52,0.00,,OVC021,0.00,257.00,VWS V14.01,2013-02-20 17:06:00,
2013-02-20 12:10:00,31.2,15.6,29.58,WSW,240,11.0,24.0,52,0.00,,OVC021,0.00,281.00,VWS V14.01,2013-02-20 17:10:00,
2013-02-20 12:11:00,31.2,15.6,29.58,WSW,252,8.0,21.0,52,0.00,,OVC021,0.00,221.00,VWS V14.01,2013-02-20 17:11:00,
2013-02-20 12:15:00,31.1,15.5,29.58,SSW,207,14.0,22.0,52,0.00,,OVC021,0.00,250.00,VWS V14.01,2013-02-20 17:15:00,
2013-02-20 12:16:00,31.4,16.3,29.58,WNW,294,10.0,16.0,53,0.00,,OVC021,0.00,264.00,VWS V14.01,2013-02-20 17:16:00,
2013-02-20 12:20:00,31.4,15.4,29.58,West,263,12.0,21.0,51,0.00,,OVC021,0.00,283.00,VWS V14.01,2013-02-20 17:20:00,
2013-02-20 12:21:00,31.1,15.1,29.58,WNW,286,20.0,25.0,51,0.00,,OVC021,0.00,262.00,VWS V14.01,2013-02-20 17:21:00,
2013-02-20 12:25:00,31.1,15.5,29.58,WNW,290,21.0,25.0,52,0.00,,OVC021,0.00,248.00,VWS V14.01,2013-02-20 17:25:00,
2013-02-20 12:26:00,31.0,15.0,29.58,West,270,11.0,21.0,51,0.00,,OVC021,0.00,213.00,VWS V14.01,2013-02-20 17:26:00,
2013-02-20 12:30:00,30.9,14.9,29.58,WNW,294,13.0,21.0,51,0.00,,OVC021,0.00,186.00,VWS V14.01,2013-02-20 17:30:00,
2013-02-20 12:31:00,31.0,15.0,29.58,WNW,284,6.0,17.0,51,0.00,,OVC021,0.00,181.00,VWS V14.01,2013-02-20 17:31:00,
2013-02-20 12:35:00,31.0,15.4,29.58,WNW,296,8.0,17.0,52,0.00,,OVC021,0.00,202.00,VWS V14.01,2013-02-20 17:35:00,
2013-02-20 12:36:00,31.0,14.6,29.57,West,271,13.0,24.0,50,0.00,,OVC021,0.00,183.00,VWS V14.01,2013-02-20 17:36:00,
2013-02-20 12:40:00,30.9,14.9,29.57,West,277,11.0,24.0,51,0.00,,OVC021,0.00,183.00,VWS V14.01,2013-02-20 17:40:00,
2013-02-20 12:41:00,30.8,14.8,29.57,West,264,9.0,22.0,51,0.00,,OVC021,0.00,232.00,VWS V14.01,2013-02-20 17:41:00,
2013-02-20 12:45:00,30.9,14.9,29.57,West,276,5.0,22.0,51,0.00,,OVC021,0.00,244.00,VWS V14.01,2013-02-20 17:45:00,
2013-02-20 12:46:00,31.1,15.1,29.57,WNW,286,16.0,17.0,51,0.00,,OVC021,0.00,338.00,VWS V14.01,2013-02-20 17:46:00,
2013-02-20 12:50:00,31.3,14.8,29.57,West,281,10.0,19.0,50,0.00,,OVC021,0.00,302.00,VWS V14.01,2013-02-20 17:50:00,
2013-02-20 12:51:00,31.4,14.5,29.57,WNW,302,8.0,17.0,49,0.00,,OVC021,0.00,241.00,VWS V14.01,2013-02-20 17:51:00,
2013-02-20 12:55:00,31.3,14.4,29.57,NW,307,9.0,21.0,49,0.00,,OVC021,0.00,197.00,VWS V14.01,2013-02-20 17:55:00,
2013-02-20 12:56:00,31.0,14.1,29.57,NW,315,12.0,22.0,49,0.00,,OVC021,0.00,185.00,VWS V14.01,2013-02-20 17:56:00,
2013-02-20 13:00:00,30.9,14.0,29.57,WNW,294,11.0,22.0,49,0.00,,OVC021,0.00,162.00,VWS V14.01,2013-02-20 18:00:00,
2013-02-20 13:01:00,30.8,14.4,29.56,NNW,331,11.0,20.0,50,0.00,,OVC021,0.00,172.00,VWS V14.01,2013-02-20 18:01:00,
2013-02-20 13:05:00,30.8,14.4,29.57,WSW,254,10.0,20.0,50,0.00,,OVC021,0.00,162.00,VWS V14.01,2013-02-20 18:05:00,
2013-02-20 13:06:00,30.9,14.9,29.57,WNW,300,9.0,18.0,51,0.00,,OVC021,0.00,227.00,VWS V14.01,2013-02-20 18:06:00,
2013-02-20 13:10:00,30.9,14.5,29.56,West,269,14.0,19.0,50,0.00,,OVC021,0.00,239.00,VWS V14.01,2013-02-20 18:10:00,
2013-02-20 13:11:00,31.0,14.6,29.57,WNW,292,6.0,15.0,50,0.00,,OVC021,0.00,260.00,VWS V14.01,2013-02-20 18:11:00,
2013-02-20 13:15:00,31.1,15.1,29.57,West,279,5.0,15.0,51,0.00,,OVC021,0.00,239.00,VWS V14.01,2013-02-20 18:15:00,
2013-02-20 13:16:00,31.5,15.0,29.57,West,279,9.0,16.0,50,0.00,,OVC021,0.00,220.00,VWS V14.01,2013-02-20 18:16:00,
2013-02-20 13:20:00,31.5,14.6,29.56,West,270,13.0,16.0,49,0.00,,OVC021,0.00,216.00,VWS V14.01,2013-02-20 18:20:00,
2013-02-20 13:22:00,31.5,13.6,29.57,West,269,14.0,27.0,47,0.00,,OVC021,0.00,230.00,VWS V14.01,2013-02-20 18:22:00,
2013-02-20 13:25:00,31.5,13.6,29.56,West,280,12.0,27.0,47,0.00,,OVC021,0.00,229.00,VWS V14.01,2013-02-20 18:25:00,
2013-02-20 13:27:00,31.4,13.5,29.56,WSW,252,19.0,24.0,47,0.00,,OVC021,0.00,214.00,VWS V14.01,2013-02-20 18:27:00,
2013-02-20 13:30:00,31.1,13.7,29.56,WNW,287,19.0,24.0,48,0.00,,OVC021,0.00,204.00,VWS V14.01,2013-02-20 18:30:00,
2013-02-20 13:32:00,30.9,14.0,29.56,WSW,254,18.0,20.0,49,0.00,,OVC021,0.00,218.00,VWS V14.01,2013-02-20 18:32:00,
2013-02-20 13:35:00,30.9,14.0,29.56,WSW,257,12.0,24.0,49,0.00,,OVC021,0.00,220.00,VWS V14.01,2013-02-20 18:35:00,
2013-02-20 13:37:00,30.9,14.0,29.56,WSW,257,10.0,21.0,49,0.00,,OVC021,0.00,227.00,VWS V14.01,2013-02-20 18:37:00,
2013-02-20 13:40:00,30.9,14.5,29.56,West,279,11.0,21.0,50,0.00,,OVC021,0.00,260.00,VWS V14.01,2013-02-20 18:40:00,
2013-02-20 13:42:00,31.0,14.1,29.57,WNW,295,8.0,15.0,49,0.00,,OVC021,0.00,188.00,VWS V14.01,2013-02-20 18:42:00,
2013-02-20 13:45:00,31.0,14.1,29.56,WNW,284,10.0,18.0,49,0.00,,OVC021,0.00,185.00,VWS V14.01,2013-02-20 18:45:00,
2013-02-20 13:47:00,30.9,13.5,29.57,West,273,16.0,23.0,48,0.00,,OVC021,0.00,216.00,VWS V14.01,2013-02-20 18:47:00,
2013-02-20 13:50:00,30.9,14.0,29.56,West,271,15.0,23.0,49,0.00,,OVC021,0.00,220.00,VWS V14.01,2013-02-20 18:50:00,
2013-02-20 13:52:00,30.9,14.0,29.57,West,275,16.0,27.0,49,0.00,,OVC021,0.00,221.00,VWS V14.01,2013-02-20 18:52:00,
2013-02-20 13:55:00,30.9,13.5,29.57,NW,317,12.0,27.0,48,0.00,,OVC021,0.00,209.00,VWS V14.01,2013-02-20 18:55:00,
2013-02-20 13:57:00,30.7,13.4,29.57,West,267,14.0,22.0,48,0.00,,OVC021,0.00,197.00,VWS V14.01,2013-02-20 18:57:00,
2013-02-20 14:00:00,30.7,13.4,29.57,NW,315,14.0,23.0,48,0.00,,OVC021,0.00,214.00,VWS V14.01,2013-02-20 19:00:00,
2013-02-20 14:02:00,30.7,13.8,29.57,West,259,11.0,16.0,49,0.00,,OVC021,0.00,158.00,VWS V14.01,2013-02-20 19:02:00,
2013-02-20 14:05:00,30.8,13.4,29.57,WSW,240,13.0,17.0,48,0.00,,OVC021,0.00,165.00,VWS V14.01,2013-02-20 19:05:00,
2013-02-20 14:07:00,30.8,13.0,29.57,WNW,298,11.0,17.0,47,0.00,,OVC021,0.00,193.00,VWS V14.01,2013-02-20 19:07:00,
2013-02-20 14:10:00,30.8,13.0,29.57,WNW,292,14.0,21.0,47,0.00,,OVC021,0.00,199.00,VWS V14.01,2013-02-20 19:10:00,
2013-02-20 14:12:00,30.8,13.0,29.57,West,261,10.0,26.0,47,0.00,,OVC021,0.00,199.00,VWS V14.01,2013-02-20 19:12:00,
2013-02-20 14:15:00,30.8,13.0,29.57,West,269,19.0,26.0,47,0.00,,OVC021,0.00,195.00,VWS V14.01,2013-02-20 19:15:00,
2013-02-20 14:17:00,30.9,14.0,29.57,NNW,336,5.0,26.0,49,0.00,,OVC021,0.00,146.00,VWS V14.01,2013-02-20 19:17:00,
2013-02-20 14:20:00,31.0,13.6,29.57,WNW,301,14.0,26.0,48,0.00,,OVC021,0.00,134.00,VWS V14.01,2013-02-20 19:20:00,
2013-02-20 14:22:00,30.8,13.0,29.57,NW,308,14.0,26.0,47,0.00,,OVC021,0.00,183.00,VWS V14.01,2013-02-20 19:22:00,
2013-02-20 14:25:00,30.8,13.0,29.57,West,272,11.0,26.0,47,0.00,,OVC021,0.00,160.00,VWS V14.01,2013-02-20 19:25:00,
2013-02-20 14:27:00,30.9,12.6,29.57,WNW,287,10.0,24.0,46,0.00,,OVC021,0.00,172.00,VWS V14.01,2013-02-20 19:27:00,
2013-02-20 14:30:00,30.9,13.1,29.57,WNW,288,8.0,24.0,47,0.00,,OVC021,0.00,172.00,VWS V14.01,2013-02-20 19:30:00,
2013-02-20 14:32:00,31.0,13.1,29.57,NW,304,8.0,18.0,47,0.00,,OVC021,0.00,149.00,VWS V14.01,2013-02-20 19:32:00,
2013-02-20 14:35:00,31.1,13.2,29.57,WNW,293,12.0,18.0,47,0.00,,OVC021,0.00,149.00,VWS V14.01,2013-02-20 19:35:00,
2013-02-20 14:37:00,31.0,12.7,29.57,WNW,286,13.0,21.0,46,0.00,,OVC021,0.00,172.00,VWS V14.01,2013-02-20 19:37:00,
2013-02-20 14:40:00,31.0,12.7,29.57,NNW,331,19.0,21.0,46,0.00,,OVC021,0.00,172.00,VWS V14.01,2013-02-20 19:40:00,
2013-02-20 14:43:00,30.9,12.1,29.57,WNW,284,9.0,24.0,45,0.00,,OVC021,0.00,149.00,VWS V14.01,2013-02-20 19:43:00,
2013-02-20 14:45:00,30.9,12.1,29.57,West,259,14.0,24.0,45,0.00,,OVC021,0.00,149.00,VWS V14.01,2013-02-20 19:45:00,
2013-02-20 14:48:00,30.7,12.4,29.57,West,274,10.0,25.0,46,0.00,,OVC021,0.00,127.00,VWS V14.01,2013-02-20 19:48:00,
2013-02-20 14:50:00,30.7,12.4,29.57,WSW,256,13.0,25.0,46,0.00,,OVC021,0.00,127.00,VWS V14.01,2013-02-20 19:50:00,
2013-02-20 14:53:00,30.7,11.9,29.57,WSW,258,15.0,20.0,45,0.00,,OVC021,0.00,234.00,VWS V14.01,2013-02-20 19:53:00,
2013-02-20 14:55:00,30.7,11.9,29.57,WSW,243,13.0,20.0,45,0.00,,OVC021,0.00,234.00,VWS V14.01,2013-02-20 19:55:00,
2013-02-20 14:58:00,31.1,11.8,29.57,West,281,13.0,25.0,44,0.00,,OVC021,0.00,455.00,VWS V14.01,2013-02-20 19:58:00,
2013-02-20 15:00:00,31.1,11.8,29.57,West,281,13.0,25.0,44,0.00,,OVC021,0.00,455.00,VWS V14.01,2013-02-20 20:00:00,
2013-02-20 15:03:00,31.6,12.2,29.58,NW,315,8.0,21.0,44,0.00,,OVC021,0.00,318.00,VWS V14.01,2013-02-20 20:03:00,
2013-02-20 15:05:00,31.6,12.2,29.58,NW,315,8.0,21.0,44,0.00,,OVC021,0.00,318.00,VWS V14.01,2013-02-20 20:05:00,
2013-02-20 15:08:00,31.1,11.8,29.58,West,277,19.0,19.0,44,0.00,,OVC021,0.00,102.00,VWS V14.01,2013-02-20 20:08:00,
2013-02-20 15:10:00,31.1,11.8,29.58,West,269,19.0,24.0,44,0.00,,OVC021,0.00,102.00,VWS V14.01,2013-02-20 20:10:00,
2013-02-20 15:13:00,30.9,11.6,29.57,West,265,15.0,15.0,44,0.00,,OVC021,0.00,243.00,VWS V14.01,2013-02-20 20:13:00,
2013-02-20 15:15:00,30.9,11.6,29.58,West,276,10.0,25.0,44,0.00,,OVC021,0.00,243.00,VWS V14.01,2013-02-20 20:15:00,
2013-02-20 15:18:00,31.1,11.2,29.58,West,272,14.0,17.0,43,0.00,,OVC021,0.00,322.00,VWS V14.01,2013-02-20 20:18:00,
2013-02-20 15:20:00,31.1,11.8,29.58,West,274,17.0,24.0,44,0.00,,OVC021,0.00,322.00,VWS V14.01,2013-02-20 20:20:00,
2013-02-20 15:23:00,31.1,11.2,29.58,WSW,248,10.0,12.0,43,0.00,,OVC021,0.00,316.00,VWS V14.01,2013-02-20 20:23:00,
2013-02-20 15:25:00,31.1,11.8,29.58,West,260,9.0,26.0,44,0.00,,OVC021,0.00,316.00,VWS V14.01,2013-02-20 20:25:00,
2013-02-20 15:28:00,31.4,11.5,29.58,West,272,11.0,15.0,43,0.00,,OVC021,0.00,294.00,VWS V14.01,2013-02-20 20:28:00,
2013-02-20 15:30:00,31.3,11.9,29.58,WSW,248,12.0,22.0,44,0.00,,OVC021,0.00,294.00,VWS V14.01,2013-02-20 20:30:00,
2013-02-20 15:33:00,31.3,11.4,29.58,West,279,9.0,10.0,43,0.00,,OVC021,0.00,264.00,VWS V14.01,2013-02-20 20:33:00,
2013-02-20 15:35:00,31.2,11.3,29.58,West,275,9.0,21.0,43,0.00,,OVC021,0.00,264.00,VWS V14.01,2013-02-20 20:35:00,
2013-02-20 15:38:00,31.5,11.6,29.58,WSW,250,13.0,18.0,43,0.00,,OVC021,0.00,243.00,VWS V14.01,2013-02-20 20:38:00,
2013-02-20 15:40:00,31.4,11.5,29.58,WSW,251,10.0,17.0,43,0.00,,OVC021,0.00,246.00,VWS V14.01,2013-02-20 20:40:00,
2013-02-20 15:44:00,31.4,11.0,29.58,WNW,284,21.0,21.0,42,0.00,,OVC021,0.00,227.00,VWS V14.01,2013-02-20 20:44:00,
2013-02-20 15:45:00,31.4,11.0,29.58,West,275,9.0,25.0,42,0.00,,OVC021,0.00,229.00,VWS V14.01,2013-02-20 20:45:00,
2013-02-20 15:49:00,31.1,11.2,29.58,WNW,302,14.0,14.0,43,0.00,,OVC021,0.00,211.00,VWS V14.01,2013-02-20 20:49:00,
2013-02-20 15:50:00,31.1,11.2,29.58,West,265,13.0,25.0,43,0.00,,OVC021,0.00,179.00,VWS V14.01,2013-02-20 20:50:00,
2013-02-20 15:54:00,31.0,11.1,29.59,WNW,283,14.0,22.0,43,0.00,,OVC021,0.00,202.00,VWS V14.01,2013-02-20 20:54:00,
2013-02-20 15:55:00,31.0,10.6,29.58,WSW,252,16.0,20.0,42,0.00,,OVC021,0.00,200.00,VWS V14.01,2013-02-20 20:55:00,
2013-02-20 15:59:00,31.0,11.1,29.59,West,259,16.0,22.0,43,0.00,,OVC021,0.00,178.00,VWS V14.01,2013-02-20 20:59:00,
2013-02-20 16:00:00,31.0,11.1,29.58,WSW,250,11.0,22.0,43,0.00,,OVC021,0.00,192.00,VWS V14.01,2013-02-20 21:00:00,
2013-02-20 16:04:00,30.7,11.4,29.58,WSW,258,24.0,27.0,44,0.00,,OVC021,0.00,142.00,VWS V14.01,2013-02-20 21:04:00,
2013-02-20 16:05:00,30.7,10.9,29.58,West,273,9.0,27.0,43,0.00,,OVC021,0.00,142.00,VWS V14.01,2013-02-20 21:05:00,
2013-02-20 16:09:00,30.4,11.1,29.59,WNW,286,13.0,20.0,44,0.00,,OVC021,0.00,155.00,VWS V14.01,2013-02-20 21:09:00,
2013-02-20 16:10:00,30.4,11.1,29.58,NW,313,9.0,27.0,44,0.00,,OVC021,0.00,156.00,VWS V14.01,2013-02-20 21:10:00,
2013-02-20 16:14:00,30.5,11.2,29.59,WSW,251,13.0,23.0,44,0.00,,OVC021,0.00,139.00,VWS V14.01,2013-02-20 21:14:00,
2013-02-20 16:15:00,30.5,11.2,29.59,West,261,20.0,21.0,44,0.00,,OVC021,0.00,144.00,VWS V14.01,2013-02-20 21:15:00,
2013-02-20 16:19:00,30.3,10.5,29.59,WNW,295,13.0,18.0,43,0.00,,OVC021,0.00,113.00,VWS V14.01,2013-02-20 21:19:00,
2013-02-20 16:20:00,30.3,11.0,29.59,WNW,296,14.0,23.0,44,0.00,,OVC021,0.00,118.00,VWS V14.01,2013-02-20 21:20:00,
2013-02-20 16:24:00,30.0,11.2,29.59,WNW,300,15.0,15.0,45,0.00,,OVC021,0.00,79.00,VWS V14.01,2013-02-20 21:24:00,
2013-02-20 16:25:00,30.0,10.7,29.59,WNW,298,8.0,22.0,44,0.00,,OVC021,0.00,69.00,VWS V14.01,2013-02-20 21:25:00,
2013-02-20 16:29:00,29.8,11.1,29.59,West,272,14.0,17.0,45,0.00,,OVC021,0.00,56.00,VWS V14.01,2013-02-20 21:29:00,
2013-02-20 16:30:00,29.9,10.6,29.59,WNW,300,8.0,23.0,44,0.00,,OVC021,0.00,74.00,VWS V14.01,2013-02-20 21:30:00,
2013-02-20 16:34:00,29.8,11.1,29.59,WNW,297,14.0,14.0,45,0.00,,OVC021,0.00,72.00,VWS V14.01,2013-02-20 21:34:00,
2013-02-20 16:35:00,29.8,11.1,29.59,WNW,296,8.0,19.0,45,0.00,,OVC021,0.00,67.00,VWS V14.01,2013-02-20 21:35:00,
2013-02-20 16:39:00,29.8,11.1,29.60,West,265,6.0,12.0,45,0.00,,OVC021,0.00,62.00,VWS V14.01,2013-02-20 21:39:00,
2013-02-20 16:40:00,29.8,11.1,29.60,WNW,290,4.0,15.0,45,0.00,,OVC021,0.00,60.00,VWS V14.01,2013-02-20 21:40:00,
2013-02-20 16:44:00,29.8,11.6,29.60,WNW,293,8.0,11.0,46,0.00,,OVC021,0.00,51.00,VWS V14.01,2013-02-20 21:44:00,
2013-02-20 16:45:00,29.8,11.1,29.60,WNW,286,7.0,16.0,45,0.00,,OVC021,0.00,49.00,VWS V14.01,2013-02-20 21:45:00,
2013-02-20 16:49:00,29.7,11.5,29.60,WNW,288,12.0,15.0,46,0.00,,OVC021,0.00,35.00,VWS V14.01,2013-02-20 21:49:00,
2013-02-20 16:50:00,29.7,11.5,29.60,WNW,290,10.0,16.0,46,0.00,,OVC021,0.00,39.00,VWS V14.01,2013-02-20 21:50:00,
2013-02-20 16:54:00,29.4,10.7,29.60,West,265,13.0,19.0,45,0.00,,OVC021,0.00,28.00,VWS V14.01,2013-02-20 21:54:00,
2013-02-20 16:55:00,29.5,10.8,29.60,West,280,11.0,18.0,45,0.00,,OVC021,0.00,35.00,VWS V14.01,2013-02-20 21:55:00,
2013-02-20 16:59:00,29.1,10.4,29.60,NW,308,5.0,17.0,45,0.00,,OVC021,0.00,18.00,VWS V14.01,2013-02-20 21:59:00,
2013-02-20 17:00:00,29.2,10.5,29.60,WNW,291,10.0,19.0,45,0.00,,OVC021,0.00,19.00,VWS V14.01,2013-02-20 22:00:00,
2013-02-20 17:05:00,29.0,10.8,29.60,WNW,286,13.0,20.0,46,0.00,,OVC021,0.00,16.00,VWS V14.01,2013-02-20 22:05:00,
2013-02-20 17:10:00,28.8,10.6,29.60,West,272,10.0,21.0,46,0.00,,OVC021,0.00,11.00,VWS V14.01,2013-02-20 22:10:00,
2013-02-20 17:15:00,28.6,10.5,29.60,WNW,282,13.0,23.0,46,0.00,,OVC021,0.00,9.00,VWS V14.01,2013-02-20 22:15:00,
2013-02-20 17:20:00,28.4,10.8,29.61,South,176,13.0,19.0,47,0.00,,OVC021,0.00,5.00,VWS V14.01,2013-02-20 22:20:00,
2013-02-20 17:25:00,28.3,10.7,29.61,WSW,251,18.0,18.0,47,0.00,,OVC021,0.00,0.00,VWS V14.01,2013-02-20 22:25:00,
2013-02-20 17:30:00,28.2,11.0,29.61,West,268,16.0,22.0,48,0.00,,OVC021,0.00,0.00,VWS V14.01,2013-02-20 22:30:00,
2013-02-20 17:35:00,28.1,10.5,29.62,NW,309,14.0,24.0,47,0.00,,OVC021,0.00,0.00,VWS V14.01,2013-02-20 22:35:00,
2013-02-20 17:40:00,28.0,10.4,29.62,West,267,12.0,19.0,47,0.00,,OVC021,0.00,0.00,VWS V14.01,2013-02-20 22:40:00,
2013-02-20 17:45:00,27.9,10.3,29.62,WNW,294,6.0,14.0,47,0.00,,OVC021,0.00,0.00,VWS V14.01,2013-02-20 22:45:00,
2013-02-20 17:50:00,27.8,10.2,29.62,NW,312,18.0,19.0,47,0.00,,OVC021,0.00,0.00,VWS V14.01,2013-02-20 22:50:00,
2013-02-20 17:51:00,27.8,10.7,29.62,NW,304,13.0,19.0,48,0.00,,OVC021,0.00,0.00,VWS V14.01,2013-02-20 22:51:00,
2013-02-20 17:55:00,27.8,10.2,29.62,West,270,10.0,23.0,47,0.00,,OVC021,0.00,0.00,VWS V14.01,2013-02-20 22:55:00,
2013-02-20 17:56:00,27.7,10.1,29.62,West,277,8.0,19.0,47,0.00,,OVC021,0.00,0.00,VWS V14.01,2013-02-20 22:56:00,
2013-02-20 18:00:00,27.7,10.1,29.62,NW,306,9.0,22.0,47,0.00,,OVC021,0.00,0.00,VWS V14.01,2013-02-20 23:00:00,
2013-02-20 18:01:00,27.7,10.1,29.63,WSW,245,15.0,18.0,47,0.00,,OVC021,0.00,0.00,VWS V14.01,2013-02-20 23:01:00,
2013-02-20 18:05:00,27.6,10.5,29.63,WNW,289,8.0,18.0,48,0.00,,OVC021,0.00,0.00,VWS V14.01,2013-02-20 23:05:00,
2013-02-20 18:06:00,27.6,10.0,29.62,West,266,17.0,23.0,47,0.00,,OVC021,0.00,0.00,VWS V14.01,2013-02-20 23:06:00,
2013-02-20 18:10:00,27.6,10.0,29.63,West,267,9.0,23.0,47,0.00,,OVC021,0.00,0.00,VWS V14.01,2013-02-20 23:10:00,
2013-02-20 18:11:00,27.6,10.5,29.63,WNW,300,8.0,17.0,48,0.00,,OVC021,0.00,0.00,VWS V14.01,2013-02-20 23:11:00,
2013-02-20 18:15:00,27.5,10.4,29.63,WNW,289,14.0,17.0,48,0.00,,OVC021,0.00,0.00,VWS V14.01,2013-02-20 23:15:00,
2013-02-20 18:16:00,27.5,10.4,29.63,WSW,250,11.0,14.0,48,0.00,,OVC021,0.00,0.00,VWS V14.01,2013-02-20 23:16:00,
2013-02-20 18:20:00,27.4,10.3,29.63,WNW,291,10.0,17.0,48,0.00,,OVC021,0.00,0.00,VWS V14.01,2013-02-20 23:20:00,
2013-02-20 18:21:00,27.4,10.8,29.63,WNW,296,6.0,16.0,49,0.00,,OVC021,0.00,0.00,VWS V14.01,2013-02-20 23:21:00,
2013-02-20 18:25:00,27.3,10.7,29.63,WNW,284,9.0,16.0,49,0.00,,OVC021,0.00,0.00,VWS V14.01,2013-02-20 23:25:00,
2013-02-20 18:26:00,27.3,11.1,29.64,NW,306,8.0,10.0,50,0.00,,OVC021,0.00,0.00,VWS V14.01,2013-02-20 23:26:00,
2013-02-20 18:30:00,27.2,11.0,29.64,West,277,12.0,19.0,50,0.00,,OVC021,0.00,0.00,VWS V14.01,2013-02-20 23:30:00,
2013-02-20 18:31:00,27.1,10.9,29.64,WNW,299,10.0,15.0,50,0.00,,OVC021,0.00,0.00,VWS V14.01,2013-02-20 23:31:00,
2013-02-20 18:35:00,27.1,10.9,29.64,WNW,286,9.0,15.0,50,0.00,,OVC021,0.00,0.00,VWS V14.01,2013-02-20 23:35:00,
2013-02-20 18:36:00,27.1,10.5,29.64,WNW,300,14.0,16.0,49,0.00,,OVC021,0.00,0.00,VWS V14.01,2013-02-20 23:36:00,
2013-02-20 18:40:00,27.1,10.9,29.64,West,263,8.0,16.0,50,0.00,,OVC021,0.00,0.00,VWS V14.01,2013-02-20 23:40:00,
2013-02-20 18:41:00,27.1,10.9,29.64,WNW,283,7.0,20.0,50,0.00,,OVC021,0.00,0.00,VWS V14.01,2013-02-20 23:41:00,
2013-02-20 18:45:00,27.1,10.9,29.64,NW,318,5.0,20.0,50,0.00,,OVC021,0.00,0.00,VWS V14.01,2013-02-20 23:45:00,
2013-02-20 18:46:00,26.9,11.2,29.64,West,273,3.0,11.0,51,0.00,,OVC021,0.00,0.00,VWS V14.01,2013-02-20 23:46:00,
2013-02-20 18:50:00,26.9,11.2,29.64,WNW,294,10.0,19.0,51,0.00,,OVC021,0.00,0.00,VWS V14.01,2013-02-20 23:50:00,
2013-02-20 18:51:00,26.9,10.8,29.64,West,276,7.0,17.0,50,0.00,,OVC021,0.00,0.00,VWS V14.01,2013-02-20 23:51:00,
2013-02-20 18:55:00,26.8,11.1,29.64,West,265,10.0,17.0,51,0.00,,OVC021,0.00,0.00,VWS V14.01,2013-02-20 23:55:00,
2013-02-20 18:56:00,26.7,11.0,29.64,West,266,12.0,14.0,51,0.00,,OVC021,0.00,0.00,VWS V14.01,2013-02-20 23:56:00,
2013-02-20 19:00:00,26.6,10.9,29.64,WNW,296,6.0,20.0,51,0.00,,OVC021,0.00,0.00,VWS V14.01,2013-02-21 00:00:00,
2013-02-20 19:05:00,26.6,10.9,29.64,West,268,17.0,26.0,51,0.00,,OVC021,0.00,0.00,VWS V14.01,2013-02-21 00:05:00,
2013-02-20 19:10:00,26.5,11.3,29.64,West,273,17.0,17.0,52,0.00,,OVC021,0.00,0.00,VWS V14.01,2013-02-21 00:10:00,
2013-02-20 19:15:00,26.4,11.2,29.64,West,278,11.0,20.0,52,0.00,,OVC021,0.00,0.00,VWS V14.01,2013-02-21 00:15:00,
2013-02-20 19:20:00,26.5,11.3,29.64,West,279,11.0,19.0,52,0.00,,OVC021,0.00,0.00,VWS V14.01,2013-02-21 00:20:00,
2013-02-20 19:25:00,26.5,11.3,29.64,West,271,14.0,20.0,52,0.00,,OVC021,0.00,0.00,VWS V14.01,2013-02-21 00:25:00,
2013-02-20 19:30:00,26.5,11.3,29.65,WSW,248,14.0,21.0,52,0.00,,OVC021,0.00,0.00,VWS V14.01,2013-02-21 00:30:00,
2013-02-20 19:35:00,26.5,11.3,29.64,WNW,290,13.0,24.0,52,0.00,,OVC021,0.00,0.00,VWS V14.01,2013-02-21 00:35:00,
2013-02-20 19:40:00,26.5,11.3,29.65,WSW,244,11.0,22.0,52,0.00,,OVC021,0.00,0.00,VWS V14.01,2013-02-21 00:40:00,
2013-02-20 19:45:00,26.5,11.3,29.64,WNW,295,10.0,23.0,52,0.00,,OVC021,0.00,0.00,VWS V14.01,2013-02-21 00:45:00,
2013-02-20 19:50:00,26.4,11.2,29.65,WNW,298,11.0,19.0,52,0.00,,OVC021,0.00,0.00,VWS V14.01,2013-02-21 00:50:00,
2013-02-20 19:55:00,26.4,11.2,29.65,NW,321,10.0,18.0,52,0.00,,OVC021,0.00,0.00,VWS V14.01,2013-02-21 00:55:00,
2013-02-20 20:00:00,26.5,11.3,29.65,West,270,10.0,17.0,52,0.00,,OVC021,0.00,0.00,VWS V14.01,2013-02-21 01:00:00,
2013-02-20 20:05:00,26.5,11.3,29.65,West,272,9.0,20.0,52,0.00,,OVC021,0.00,0.00,VWS V14.01,2013-02-21 01:05:00,
2013-02-20 20:10:00,26.5,11.3,29.65,SSW,194,14.0,19.0,52,0.00,,OVC021,0.00,0.00,VWS V14.01,2013-02-21 01:10:00,
2013-02-20 20:15:00,26.5,11.7,29.66,West,265,15.0,21.0,53,0.00,,OVC021,0.00,0.00,VWS V14.01,2013-02-21 01:15:00,
2013-02-20 20:20:00,26.5,11.7,29.66,WSW,257,7.0,18.0,53,0.00,,OVC021,0.00,0.00,VWS V14.01,2013-02-21 01:20:00,
2013-02-20 20:25:00,26.4,11.6,29.66,WNW,292,7.0,19.0,53,0.00,,OVC021,0.00,0.00,VWS V14.01,2013-02-21 01:25:00,
2013-02-20 20:30:00,26.4,11.6,29.66,WNW,291,9.0,20.0,53,0.00,,OVC021,0.00,0.00,VWS V14.01,2013-02-21 01:30:00,
2013-02-20 20:35:00,26.3,11.9,29.66,WNW,284,10.0,18.0,54,0.00,,OVC021,0.00,0.00,VWS V14.01,2013-02-21 01:35:00,
2013-02-20 20:40:00,26.2,11.8,29.66,West,266,12.0,18.0,54,0.00,,OVC021,0.00,0.00,VWS V14.01,2013-02-21 01:40:00,
2013-02-20 20:45:00,26.2,11.8,29.66,West,273,11.0,21.0,54,0.00,,OVC021,0.00,0.00,VWS V14.01,2013-02-21 01:45:00,
2013-02-20 20:50:00,26.1,11.7,29.66,West,265,8.0,19.0,54,0.00,,OVC021,0.00,0.00,VWS V14.01,2013-02-21 01:50:00,
2013-02-20 20:55:00,26.0,11.6,29.66,WNW,284,10.0,22.0,54,0.00,,OVC021,0.00,0.00,VWS V14.01,2013-02-21 01:55:00,
2013-02-20 21:00:00,26.0,12.1,29.66,West,275,10.0,21.0,55,0.00,,OVC021,0.00,0.00,VWS V14.01,2013-02-21 02:00:00,
2013-02-20 21:05:00,25.9,12.0,29.66,WNW,292,8.0,16.0,55,0.00,,OVC021,0.00,0.00,VWS V14.01,2013-02-21 02:05:00,
2013-02-20 21:10:00,25.7,12.2,29.66,WNW,296,9.0,12.0,56,0.00,,OVC021,0.00,0.00,VWS V14.01,2013-02-21 02:10:00,
2013-02-20 21:15:00,25.6,12.1,29.67,West,277,12.0,17.0,56,0.00,,OVC021,0.00,0.00,VWS V14.01,2013-02-21 02:15:00,
2013-02-20 21:20:00,25.6,11.7,29.67,West,271,6.0,27.0,55,0.00,,OVC021,0.00,0.00,VWS V14.01,2013-02-21 02:20:00,
2013-02-20 21:25:00,25.5,12.0,29.66,West,271,8.0,16.0,56,0.00,,OVC021,0.00,0.00,VWS V14.01,2013-02-21 02:25:00,
2013-02-20 21:30:00,25.5,12.0,29.67,WSW,258,18.0,19.0,56,0.00,,OVC021,0.00,0.00,VWS V14.01,2013-02-21 02:30:00,
2013-02-20 21:35:00,25.3,11.8,29.67,NNW,327,7.0,18.0,56,0.00,,OVC021,0.00,0.00,VWS V14.01,2013-02-21 02:35:00,
2013-02-20 21:40:00,25.3,11.8,29.67,West,277,7.0,19.0,56,0.00,,OVC021,0.00,0.00,VWS V14.01,2013-02-21 02:40:00,
2013-02-20 21:45:00,25.3,11.8,29.67,WNW,300,10.0,18.0,56,0.00,,OVC021,0.00,0.00,VWS V14.01,2013-02-21 02:45:00,
2013-02-20 21:50:00,25.2,12.1,29.67,West,273,7.0,16.0,57,0.00,,OVC021,0.00,0.00,VWS V14.01,2013-02-21 02:50:00,
2013-02-20 21:55:00,25.2,12.1,29.67,WNW,285,5.0,17.0,57,0.00,,OVC021,0.00,0.00,VWS V14.01,2013-02-21 02:55:00,
2013-02-20 22:00:00,25.1,12.4,29.68,West,261,9.0,12.0,58,0.00,,OVC021,0.00,0.00,VWS V14.01,2013-02-21 03:00:00,
2013-02-20 22:05:00,25.1,12.4,29.68,WNW,289,5.0,13.0,58,0.00,,OVC021,0.00,0.00,VWS V14.01,2013-02-21 03:05:00,
2013-02-20 22:10:00,25.1,12.4,29.68,NW,317,5.0,13.0,58,0.00,,OVC021,0.00,0.00,VWS V14.01,2013-02-21 03:10:00,
2013-02-20 22:15:00,25.2,12.5,29.68,WSW,252,8.0,19.0,58,0.00,,OVC021,0.00,0.00,VWS V14.01,2013-02-21 03:15:00,
2013-02-20 22:20:00,25.2,12.5,29.68,West,273,7.0,12.0,58,0.00,,OVC021,0.00,0.00,VWS V14.01,2013-02-21 03:20:00,
2013-02-20 22:25:00,25.2,12.5,29.68,WNW,283,7.0,15.0,58,0.00,,OVC021,0.00,0.00,VWS V14.01,2013-02-21 03:25:00,
2013-02-20 22:30:00,25.2,12.5,29.69,WNW,300,9.0,16.0,58,0.00,,OVC021,0.00,0.00,VWS V14.01,2013-02-21 03:30:00,
2013-02-20 22:35:00,25.3,12.6,29.69,WNW,287,6.0,15.0,58,0.00,,OVC021,0.00,0.00,VWS V14.01,2013-02-21 03:35:00,
2013-02-20 22:40:00,25.3,12.6,29.69,WNW,294,13.0,16.0,58,0.00,,OVC021,0.00,0.00,VWS V14.01,2013-02-21 03:40:00,
2013-02-20 22:45:00,25.3,13.0,29.69,NW,305,5.0,14.0,59,0.00,,OVC021,0.00,0.00,VWS V14.01,2013-02-21 03:45:00,
2013-02-20 22:50:00,25.2,12.9,29.70,West,272,5.0,12.0,59,0.00,,OVC021,0.00,0.00,VWS V14.01,2013-02-21 03:50:00,
2013-02-20 22:55:00,25.2,12.9,29.70,WNW,302,6.0,15.0,59,0.00,,OVC021,0.00,0.00,VWS V14.01,2013-02-21 03:55:00,
2013-02-20 23:00:00,25.3,13.0,29.70,WNW,284,12.0,15.0,59,0.00,,OVC021,0.00,0.00,VWS V14.01,2013-02-21 04:00:00,
2013-02-20 23:05:00,25.3,13.4,29.70,West,275,8.0,16.0,60,0.00,,OVC021,0.00,0.00,VWS V14.01,2013-02-21 04:05:00,
2013-02-20 23:10:00,25.3,13.4,29.70,West,281,13.0,20.0,60,0.00,,OVC021,0.00,0.00,VWS V14.01,2013-02-21 04:10:00,
2013-02-20 23:15:00,25.3,13.4,29.71,West,271,8.0,14.0,60,0.00,,OVC021,0.00,0.00,VWS V14.01,2013-02-21 04:15:00,
2013-02-20 23:20:00,25.3,13.8,29.70,West,275,11.0,19.0,61,0.00,,OVC021,0.00,0.00,VWS V14.01,2013-02-21 04:20:00,
2013-02-20 23:25:00,25.3,13.8,29.70,West,280,14.0,16.0,61,0.00,,OVC021,0.00,0.00,VWS V14.01,2013-02-21 04:25:00,
2013-02-20 23:30:00,25.3,13.8,29.71,West,266,8.0,15.0,61,0.00,,OVC021,0.00,0.00,VWS V14.01,2013-02-21 04:30:00,
2013-02-20 23:35:00,25.4,13.8,29.71,West,273,7.0,18.0,61,0.00,,OVC021,0.00,0.00,VWS V14.01,2013-02-21 04:35:00,
2013-02-20 23:40:00,25.3,14.1,29.71,West,273,11.0,13.0,62,0.00,,OVC021,0.00,0.00,VWS V14.01,2013-02-21 04:40:00,
2013-02-20 23:45:00,25.3,14.1,29.71,WNW,291,4.0,14.0,62,0.00,,OVC021,0.00,0.00,VWS V14.01,2013-02-21 04:45:00,
2013-02-20 23:50:00,25.3,14.1,29.71,WNW,286,9.0,14.0,62,0.00,,OVC021,0.00,0.00,VWS V14.01,2013-02-21 04:50:00,
2013-02-20 23:55:00,25.4,14.2,29.71,West,273,6.0,12.0,62,0.00,,OVC021,0.00,0.00,VWS V14.01,2013-02-21 04:55:00,